Time;durP1;ratioP1;P1;durP2;ratioP2;P2;SDS_P1;SDS_P2;PMS_P1;PMS_P2;Temp;Humidity;BMP_temperature;BMP_pressure;BME280_temperature;BME280_humidity;BME280_pressure;Samples;Min_cycle;Max_cycle;Signal;HPM_P1;HPM_P2
2022/01/20 00:03:37;;;;;;;23.33;11.35;;;;;;;-2.77;57.62;96132.59;5070776;28;20068;-79
2022/01/20 00:27:49;;;;;;;60.92;25.42;;;;;;;-2.80;57.26;96125.72;5106998;28;20039;-79
2022/01/20 00:37:45;;;;;;;45.00;21.25;;;;;;;-2.99;58.97;96124.03;5105400;28;20502;-78
2022/01/20 00:40:11;;;;;;;46.75;21.95;;;;;;;-2.92;58.32;96124.59;5105523;28;20620;-79
2022/01/20 00:42:37;;;;;;;46.30;21.20;;;;;;;-2.94;59.09;96123.81;5105021;28;20576;-79
2022/01/20 00:45:03;;;;;;;46.40;21.35;;;;;;;-2.96;58.88;96120.38;5105840;28;20035;-78
2022/01/20 00:47:29;;;;;;;45.88;21.63;;;;;;;-2.99;58.82;96117.91;5087920;28;20455;-78
2022/01/20 00:49:54;;;;;;;49.15;21.40;;;;;;;-3.02;59.10;96118.06;5088830;28;20101;-78
2022/01/20 00:52:19;;;;;;;57.22;24.92;;;;;;;-3.03;58.55;96119.00;5104985;28;20027;-79
2022/01/20 00:54:45;;;;;;;68.53;26.95;;;;;;;-3.14;58.40;96116.91;5107008;28;20081;-79
2022/01/20 00:57:10;;;;;;;72.78;29.98;;;;;;;-3.23;58.33;96113.81;5106286;28;20028;-79
2022/01/20 00:59:36;;;;;;;76.25;29.10;;;;;;;-3.26;58.18;96111.34;5106486;28;20032;-78
2022/01/20 01:02:04;;;;;;;77.90;30.00;;;;;;;-3.33;58.70;96119.56;5105451;28;20114;-79
2022/01/20 01:04:29;;;;;;;70.97;29.98;;;;;;;-3.30;59.45;96119.41;5092509;28;20034;-78
2022/01/20 01:09:20;;;;;;;72.05;31.70;;;;;;;-3.49;57.29;96100.19;5092247;28;20027;-78
2022/01/20 01:11:47;;;;;;;70.43;29.27;;;;;;;-3.64;57.29;96111.38;5109740;28;20020;-78
2022/01/20 01:14:14;;;;;;;59.15;26.17;;;;;;;-3.72;57.10;96103.88;5108923;28;20027;-80
2022/01/20 01:24:34;;;;;;;45.95;20.23;;;;;;;-3.77;58.99;96088.38;5110945;28;20032;-76
2022/01/20 01:27:00;;;;;;;58.10;23.48;;;;;;;-3.80;58.71;96091.16;5108627;28;20488;-78
2022/01/20 01:31:57;;;;;;;47.92;22.95;;;;;;;-3.87;58.69;96085.34;5108893;28;20409;-77
2022/01/20 01:34:23;;;;;;;53.80;24.77;;;;;;;-3.90;58.20;96077.63;5108697;28;20478;-79
2022/01/20 01:39:25;;;;;;;76.97;30.45;;;;;;;-3.83;59.14;96069.47;5108661;28;20090;-78
2022/01/20 01:41:51;;;;;;;139.32;49.67;;;;;;;-3.78;59.88;96073.59;5110278;28;20031;-78
2022/01/20 01:44:26;;;;;;;128.18;46.00;;;;;;;-3.78;59.66;96072.72;5108398;28;20092;-77
2022/01/20 01:46:52;;;;;;;150.27;53.80;;;;;;;-3.90;60.50;96069.75;5109137;28;20035;-78
2022/01/20 01:49:18;;;;;;;120.80;45.92;;;;;;;-3.87;59.92;96053.88;5110041;28;20394;-77
2022/01/20 01:51:44;;;;;;;127.35;45.72;;;;;;;-3.84;60.50;96047.66;5108867;28;20015;-78
2022/01/20 01:54:11;;;;;;;102.30;40.30;;;;;;;-3.98;61.13;96054.41;5091568;28;20424;-79
2022/01/20 01:56:37;;;;;;;105.95;37.95;;;;;;;-4.00;61.48;96058.84;5109366;28;20026;-78
2022/01/20 01:59:02;;;;;;;105.95;41.25;;;;;;;-3.97;61.17;96061.31;5108699;28;20024;-77
2022/01/20 02:01:31;;;;;;;108.10;40.17;;;;;;;-3.99;61.15;96054.47;5109379;28;20471;-77
2022/01/20 02:04:00;;;;;;;104.60;40.35;;;;;;;-3.98;60.89;96050.91;5108793;28;20102;-78
2022/01/20 02:06:52;;;;;;;101.63;39.92;;;;;;;-4.02;60.87;96055.47;5108273;28;20489;-79
2022/01/20 02:19:56;;;;;;;95.97;36.15;;;;;;;-4.29;61.57;96039.25;5109505;28;20042;-77
2022/01/20 02:22:22;;;;;;;87.45;35.95;;;;;;;-4.36;61.68;96036.06;5090960;28;20409;-78
2022/01/20 02:24:47;;;;;;;83.53;35.97;;;;;;;-4.41;61.87;96032.78;5110101;28;20028;-78
2022/01/20 02:27:13;;;;;;;84.20;34.40;;;;;;;-4.50;62.09;96036.69;5107282;28;20020;-78
2022/01/20 02:29:38;;;;;;;85.75;36.75;;;;;;;-4.49;61.83;96034.00;5109898;28;20029;-79
2022/01/20 02:32:04;;;;;;;89.60;37.75;;;;;;;-4.46;62.10;96035.63;5107323;28;20043;-79
2022/01/20 02:34:31;;;;;;;91.07;36.47;;;;;;;-4.48;61.59;96025.22;5109032;28;20036;-78
2022/01/20 02:36:58;;;;;;;77.05;35.63;;;;;;;-4.55;61.68;96018.59;5107319;28;20036;-78
2022/01/20 02:44:51;;;;;;;72.03;32.30;;;;;;;-4.63;61.56;96026.78;5093135;28;20061;-79
2022/01/20 02:47:18;;;;;;;57.60;26.73;;;;;;;-4.60;61.20;96015.31;5108885;28;20023;-76
2022/01/20 02:49:44;;;;;;;63.78;26.35;;;;;;;-4.67;60.46;96014.72;5108702;28;20023;-78
2022/01/20 02:52:10;;;;;;;49.08;22.50;;;;;;;-4.64;61.29;96011.97;5107185;28;20031;-78
2022/01/20 02:54:36;;;;;;;48.97;21.95;;;;;;;-4.59;60.74;96011.75;5108820;28;20024;-78
2022/01/20 02:57:03;;;;;;;51.92;20.45;;;;;;;-4.57;60.86;96016.94;5108359;28;20024;-78
2022/01/20 02:59:28;;;;;;;50.85;21.17;;;;;;;-4.61;61.22;96006.59;5107548;28;20050;-78
2022/01/20 03:01:53;;;;;;;53.47;23.85;;;;;;;-4.65;60.99;96006.81;5108110;28;20486;-78
2022/01/20 03:04:23;;;;;;;45.92;19.98;;;;;;;-4.66;61.39;96002.50;5090532;28;20015;-79
2022/01/20 03:06:49;;;;;;;41.83;18.70;;;;;;;-4.58;61.62;95997.78;5106901;28;20019;-79
2022/01/20 03:09:14;;;;;;;37.08;17.63;;;;;;;-4.71;61.70;95997.47;5108292;27;20032;-78
2022/01/20 03:11:40;;;;;;;46.17;20.45;;;;;;;-4.65;61.57;96002.44;5108482;28;20022;-79
2022/01/20 03:14:05;;;;;;;46.90;20.77;;;;;;;-4.67;60.61;96001.66;5106739;28;20035;-77
2022/01/20 03:16:30;;;;;;;43.35;19.30;;;;;;;-4.74;61.36;96003.69;5108292;28;20027;-78
2022/01/20 03:18:56;;;;;;;48.25;20.38;;;;;;;-4.82;61.66;96000.56;5107950;28;20012;-79
2022/01/20 03:21:22;;;;;;;38.88;19.35;;;;;;;-4.82;61.64;95999.72;5108529;28;20028;-77
2022/01/20 03:23:47;;;;;;;43.55;19.55;;;;;;;-4.79;61.27;96002.19;5106569;28;20028;-78
2022/01/20 03:26:13;;;;;;;38.30;18.23;;;;;;;-4.77;61.03;95992.53;5107673;28;20361;-79
2022/01/20 03:28:38;;;;;;;39.75;18.17;;;;;;;-4.84;61.39;95997.16;5106617;28;20068;-79
2022/01/20 03:31:03;;;;;;;34.45;17.85;;;;;;;-4.98;62.11;95987.31;5089582;28;20030;-78
2022/01/20 03:33:29;;;;;;;46.92;21.17;;;;;;;-5.03;62.33;95991.91;5107871;28;20064;-77
2022/01/20 03:35:54;;;;;;;46.72;21.17;;;;;;;-5.09;62.36;95980.78;5107668;28;20034;-78
2022/01/20 03:38:20;;;;;;;42.50;20.50;;;;;;;-5.07;62.38;95985.09;5106273;28;20048;-78
2022/01/20 03:40:45;;;;;;;54.63;24.33;;;;;;;-5.09;62.81;95969.47;5106255;28;20122;-79
2022/01/20 03:43:11;;;;;;;57.65;26.83;;;;;;;-5.01;62.54;95976.97;5106978;28;20466;-78
2022/01/20 03:45:38;;;;;;;57.78;25.73;;;;;;;-4.98;62.74;95979.47;5106144;28;20030;-78
2022/01/20 03:48:09;;;;;;;58.28;23.40;;;;;;;-5.02;62.45;95976.13;5107867;28;20028;-78
2022/01/20 03:53:18;;;;;;;64.45;25.90;;;;;;;-4.91;62.64;95961.72;5106542;28;20030;-81
2022/01/20 03:55:44;;;;;;;56.30;25.33;;;;;;;-4.93;62.32;95964.41;5106344;28;20043;-79
2022/01/20 03:58:09;;;;;;;53.45;26.58;;;;;;;-4.86;62.73;95965.84;5107160;28;20409;-78
2022/01/20 04:00:35;;;;;;;57.85;27.90;;;;;;;-4.78;62.37;95967.25;5107702;28;20027;-77
2022/01/20 04:03:00;;;;;;;64.65;28.70;;;;;;;-4.69;61.82;95971.22;5107282;28;20023;-77
2022/01/20 04:05:26;;;;;;;74.07;31.95;;;;;;;-4.69;62.11;95976.47;5107118;28;20024;-78
2022/01/20 04:07:51;;;;;;;67.78;29.88;;;;;;;-4.68;61.57;95973.78;5107447;28;20103;-78
2022/01/20 04:10:17;;;;;;;70.40;30.20;;;;;;;-4.63;61.39;95971.81;5105824;28;20024;-78
2022/01/20 04:12:42;;;;;;;74.75;32.80;;;;;;;-4.72;61.62;95973.06;5107365;28;20027;-79
2022/01/20 04:15:09;;;;;;;73.03;31.02;;;;;;;-4.70;61.28;95967.75;5105325;28;20332;-79
2022/01/20 04:17:39;;;;;;;77.60;30.85;;;;;;;-4.62;60.80;95964.78;5107337;28;20035;-78
2022/01/20 04:20:05;;;;;;;64.63;29.00;;;;;;;-4.58;60.94;95958.50;5106867;28;20032;-78
2022/01/20 04:22:31;;;;;;;46.45;20.50;;;;;;;-4.53;60.33;95972.19;5107643;28;20031;-77
2022/01/20 04:24:56;;;;;;;50.40;20.35;;;;;;;-4.50;60.02;95972.06;5105689;28;20019;-77
2022/01/20 04:27:21;;;;;;;54.75;23.48;;;;;;;-4.56;59.89;95968.91;5105699;28;20020;-79
2022/01/20 04:29:47;;;;;;;52.50;24.75;;;;;;;-4.76;60.00;95961.03;5107050;28;20501;-81
2022/01/20 04:32:12;;;;;;;50.33;24.20;;;;;;;-4.84;60.06;95974.44;5071720;28;20773;-79
2022/01/20 04:34:38;;;;;;;44.83;22.08;;;;;;;-4.85;60.16;95962.28;5107143;28;20423;-77
2022/01/20 04:37:05;;;;;;;54.72;24.52;;;;;;;-4.92;60.44;95960.88;5104174;28;20164;-78
2022/01/20 04:39:33;;;;;;;56.67;25.40;;;;;;;-5.00;60.71;95968.22;5105820;28;20034;-78
2022/01/20 04:41:58;;;;;;;56.95;25.00;;;;;;;-5.03;60.91;95963.13;5104998;28;20020;-78
2022/01/20 04:45:01;;;;;;;56.20;25.75;;;;;;;-5.15;61.26;95970.59;5106713;28;20027;-77
2022/01/20 04:47:32;;;;;;;58.85;25.75;;;;;;;-5.21;61.63;95965.63;5101820;28;20051;-77
2022/01/20 04:58:09;;;;;;;51.88;23.00;;;;;;;-5.26;61.75;95972.81;5105087;28;20039;-77
2022/01/20 05:00:34;;;;;;;55.70;25.50;;;;;;;-5.34;62.30;95960.94;5107076;28;20023;-78
2022/01/20 05:03:02;;;;;;;60.72;25.95;;;;;;;-5.33;62.21;95961.75;5104548;28;20028;-79
2022/01/20 05:05:27;;;;;;;55.72;24.40;;;;;;;-5.26;62.61;95963.22;5105567;28;20016;-79
2022/01/20 05:07:52;;;;;;;47.58;23.13;;;;;;;-5.45;62.69;95963.16;5104614;28;20076;-79
2022/01/20 05:10:18;;;;;;;47.88;22.48;;;;;;;-5.54;62.48;95964.38;5106774;28;20035;-79
2022/01/20 05:15:15;;;;;;;57.22;23.52;;;;;;;-5.60;63.17;95960.28;5106156;28;20039;-78
2022/01/20 05:17:40;;;;;;;51.03;23.33;;;;;;;-5.63;63.01;95963.03;5088155;28;20024;-78
2022/01/20 05:20:06;;;;;;;56.38;25.23;;;;;;;-5.63;63.16;95963.03;5105594;28;20043;-78
2022/01/20 05:22:31;;;;;;;52.70;24.95;;;;;;;-5.91;63.74;95964.16;5105309;28;20062;-78
2022/01/20 05:24:57;;;;;;;51.33;25.35;;;;;;;-5.92;64.01;95970.31;5105799;28;20301;-78
2022/01/20 05:27:22;;;;;;;53.67;24.95;;;;;;;-5.86;64.45;95969.19;5106825;28;20027;-79
2022/01/20 05:29:48;;;;;;;65.07;26.75;;;;;;;-5.84;64.40;95962.16;5104854;28;20020;-78
2022/01/20 05:32:13;;;;;;;55.00;24.65;;;;;;;-5.86;64.79;95980.50;5105128;28;20020;-77
2022/01/20 05:34:39;;;;;;;56.95;25.25;;;;;;;-5.79;64.70;95967.19;5106428;28;20023;-80
2022/01/20 05:37:04;;;;;;;60.85;25.60;;;;;;;-5.86;65.07;95966.56;5104063;28;20051;-79
2022/01/20 05:39:30;;;;;;;58.42;25.67;;;;;;;-5.76;64.80;95961.81;5105220;28;20046;-79
2022/01/20 05:41:56;;;;;;;61.50;25.70;;;;;;;-5.73;63.68;95959.09;5087236;28;20023;-78
2022/01/20 05:44:21;;;;;;;57.13;25.52;;;;;;;-5.68;63.32;95967.59;5105281;28;20386;-78
2022/01/20 05:46:49;;;;;;;55.10;27.38;;;;;;;-5.62;63.28;95961.25;5105880;28;20406;-77
2022/01/20 05:49:20;;;;;;;59.10;26.40;;;;;;;-5.66;63.08;95962.28;5107001;28;20042;-78
2022/01/20 05:51:49;;;;;;;63.38;26.17;;;;;;;-5.61;62.85;95963.78;5076266;28;20088;-78
2022/01/20 05:54:15;;;;;;;61.13;26.88;;;;;;;-5.56;62.90;95962.75;5108510;28;20107;-78
2022/01/20 05:56:40;;;;;;;53.22;27.13;;;;;;;-5.60;63.05;95962.91;5110108;28;20023;-78
2022/01/20 05:59:06;;;;;;;56.67;26.60;;;;;;;-5.73;63.35;95965.16;5109741;28;20024;-78
2022/01/20 06:01:36;;;;;;;52.63;25.48;;;;;;;-5.62;63.30;95963.84;5109169;28;20019;-78
2022/01/20 06:04:01;;;;;;;55.75;24.42;;;;;;;-5.56;63.13;95965.38;5091530;28;20031;-79
2022/01/20 06:06:27;;;;;;;53.55;24.30;;;;;;;-5.52;63.39;95959.94;5108542;28;20086;-78
2022/01/20 06:08:52;;;;;;;57.70;25.35;;;;;;;-5.38;63.32;95961.97;5109670;28;20023;-79
2022/01/20 06:11:17;;;;;;;59.22;25.98;;;;;;;-5.24;62.85;95963.16;5108061;28;20028;-80
2022/01/20 06:13:43;;;;;;;69.70;31.90;;;;;;;-5.11;62.49;95966.09;5108357;28;20023;-79
2022/01/20 06:16:09;;;;;;;65.13;31.30;;;;;;;-5.00;62.01;95958.59;5107723;28;20080;-78
2022/01/20 06:18:34;;;;;;;70.88;34.05;;;;;;;-4.91;62.11;95959.94;5108461;28;20514;-79
2022/01/20 06:21:00;;;;;;;81.30;36.33;;;;;;;-4.83;61.90;95959.59;5108772;28;20474;-78
2022/01/20 06:23:25;;;;;;;70.85;32.42;;;;;;;-4.68;61.87;95963.31;5110427;28;20088;-77
2022/01/20 06:25:51;;;;;;;60.53;31.60;;;;;;;-4.44;61.35;95955.22;5092675;28;20462;-78
2022/01/20 06:28:17;;;;;;;75.65;32.40;;;;;;;-4.24;60.77;95958.69;5110950;28;20531;-77
2022/01/20 06:30:42;;;;;;;69.53;32.78;;;;;;;-4.06;59.95;95958.75;5107808;28;20020;-77
2022/01/20 06:33:08;;;;;;;66.93;32.13;;;;;;;-3.78;59.34;95960.00;5106825;28;20035;-78
2022/01/20 06:35:33;;;;;;;74.75;34.47;;;;;;;-3.82;59.31;95963.72;5107814;28;20398;-78
2022/01/20 06:37:59;;;;;;;86.88;37.72;;;;;;;-3.97;59.88;95955.66;5107119;28;20053;-78
2022/01/20 06:40:24;;;;;;;89.07;39.17;;;;;;;-3.83;59.84;95969.84;5107606;28;20023;-78
2022/01/20 06:42:50;;;;;;;77.53;40.58;;;;;;;-3.78;59.87;95962.63;5107069;28;20016;-78
2022/01/20 06:45:16;;;;;;;87.45;37.72;;;;;;;-3.80;59.46;95961.84;5108803;28;20032;-80
2022/01/20 06:47:42;;;;;;;91.88;39.83;;;;;;;-3.72;59.60;95959.69;5108455;28;20055;-78
2022/01/20 06:50:08;;;;;;;83.18;38.08;;;;;;;-3.56;59.46;95945.84;5107105;28;20020;-79
2022/01/20 06:52:34;;;;;;;90.28;40.50;;;;;;;-3.36;58.46;95947.44;5107511;28;20031;-78
2022/01/20 06:55:00;;;;;;;89.25;42.65;;;;;;;-3.23;58.24;95948.50;5106808;28;20031;-78
2022/01/20 06:57:26;;;;;;;78.25;36.35;;;;;;;-2.93;57.03;95954.84;5108789;28;20055;-78
2022/01/20 06:59:51;;;;;;;67.13;29.95;;;;;;;-2.74;56.13;95953.91;5106133;28;20477;-80
2022/01/20 07:02:16;;;;;;;54.67;25.20;;;;;;;-2.59;56.06;95960.09;5107246;28;20058;-78
2022/01/20 07:04:43;;;;;;;45.78;23.70;;;;;;;-2.39;55.47;95952.91;5106814;28;20020;-78
2022/01/20 07:07:09;;;;;;;45.47;22.17;;;;;;;-2.14;54.54;95947.13;5106705;28;20027;-78
2022/01/20 07:09:34;;;;;;;52.47;25.67;;;;;;;-1.96;54.33;95952.28;5106972;28;20028;-78
2022/01/20 07:12:00;;;;;;;55.17;26.77;;;;;;;-1.71;53.68;95950.91;5106737;28;20028;-78
2022/01/20 07:14:26;;;;;;;57.72;27.95;;;;;;;-1.44;52.72;95965.16;5089842;28;20034;-77
2022/01/20 07:16:51;;;;;;;55.92;28.73;;;;;;;-1.23;52.34;95962.22;5106828;28;20019;-79
2022/01/20 07:19:17;;;;;;;57.90;28.75;;;;;;;-1.01;52.06;95974.94;5107011;28;20490;-78
2022/01/20 07:21:43;;;;;;;54.90;27.73;;;;;;;-0.73;51.23;95970.66;5107833;28;20028;-79
2022/01/20 07:24:08;;;;;;;53.92;28.08;;;;;;;-0.53;51.03;95973.81;5108288;28;20041;-78
2022/01/20 07:26:34;;;;;;;58.15;26.70;;;;;;;-0.34;50.55;95948.97;5106264;28;20155;-78
2022/01/20 07:28:59;;;;;;;56.20;28.15;;;;;;;-0.09;50.63;95942.13;5106702;28;20036;-78
2022/01/20 07:31:25;;;;;;;45.15;24.13;;;;;;;0.14;49.90;95937.16;5107816;28;20031;-79
2022/01/20 07:33:50;;;;;;;39.40;18.65;;;;;;;0.32;49.29;95933.31;5089053;28;20027;-79
2022/01/20 07:36:16;;;;;;;48.55;23.73;;;;;;;0.49;48.42;95931.34;5106936;28;20112;-77
2022/01/20 07:38:42;;;;;;;45.13;24.13;;;;;;;0.69;48.10;95937.97;5088639;28;20055;-77
2022/01/20 07:41:07;;;;;;;55.83;26.15;;;;;;;0.85;47.58;95934.28;5108257;28;20035;-78
2022/01/20 07:43:32;;;;;;;44.67;23.50;;;;;;;1.01;47.19;95933.22;5106026;28;20020;-78
2022/01/20 07:45:58;;;;;;;48.95;23.35;;;;;;;1.14;47.99;95935.88;5107993;28;20032;-77
2022/01/20 07:48:23;;;;;;;42.88;22.58;;;;;;;1.23;46.76;95940.50;5106169;28;20027;-78
2022/01/20 07:50:49;;;;;;;41.85;22.48;;;;;;;1.40;47.61;95943.78;5106182;28;20020;-77
2022/01/20 07:53:14;;;;;;;42.97;20.65;;;;;;;1.51;46.50;95946.53;5106541;28;20035;-78
2022/01/20 07:55:40;;;;;;;37.60;18.98;;;;;;;1.68;47.29;95941.81;5088712;28;20092;-79
2022/01/20 07:58:05;;;;;;;37.55;17.90;;;;;;;1.68;47.06;95947.09;5106653;28;20050;-78
2022/01/20 08:00:31;;;;;;;33.97;16.35;;;;;;;1.77;47.05;95946.47;5107295;28;20416;-79
2022/01/20 08:02:56;;;;;;;31.63;16.25;;;;;;;1.84;47.31;95939.78;5111803;28;20084;-78
2022/01/20 08:05:22;;;;;;;30.83;15.23;;;;;;;2.01;47.67;95945.66;5109141;28;20035;-77
2022/01/20 08:07:48;;;;;;;29.45;15.98;;;;;;;2.12;47.37;95949.31;5108866;28;20042;-77
2022/01/20 08:10:13;;;;;;;33.28;15.90;;;;;;;2.18;47.69;95940.91;5110063;28;20417;-79
2022/01/20 08:12:39;;;;;;;28.92;16.23;;;;;;;2.24;47.73;95937.84;5106689;28;20023;-79
2022/01/20 08:15:09;;;;;;;29.70;15.52;;;;;;;2.41;48.36;95938.38;5089252;28;20024;-77
2022/01/20 08:17:34;;;;;;;20.50;10.90;;;;;;;2.54;47.84;95944.47;5105714;28;20098;-79
2022/01/20 08:20:00;;;;;;;19.00;7.53;;;;;;;2.70;46.63;95935.38;5106142;28;20474;-78
2022/01/20 08:22:25;;;;;;;16.02;7.30;;;;;;;2.82;46.52;95938.91;5106733;28;20039;-78
2022/01/20 08:24:52;;;;;;;11.25;6.78;;;;;;;2.92;46.11;95924.00;5106860;28;20024;-78
2022/01/20 08:27:20;;;;;;;16.05;6.30;;;;;;;3.04;46.42;95919.56;5105817;28;20039;-79
2022/01/20 08:29:46;;;;;;;14.70;6.32;;;;;;;3.13;45.46;95919.81;5105173;28;20080;-78
2022/01/20 08:32:11;;;;;;;17.77;6.45;;;;;;;3.24;44.91;95913.69;5105812;28;20020;-78
2022/01/20 08:34:37;;;;;;;11.65;5.85;;;;;;;3.33;44.74;95919.13;5104759;28;20023;-78
2022/01/20 08:37:02;;;;;;;11.38;5.55;;;;;;;3.52;43.83;95908.84;5106989;28;20024;-78
2022/01/20 08:42:04;;;;;;;12.02;5.25;;;;;;;3.54;42.84;95905.13;5106924;28;20038;-77
2022/01/20 08:44:29;;;;;;;14.32;5.80;;;;;;;3.71;42.31;95897.63;5106595;28;20089;-78
2022/01/20 08:46:57;;;;;;;9.70;5.07;;;;;;;3.71;42.59;95892.31;5106706;28;20144;-78
2022/01/20 08:49:23;;;;;;;10.15;5.40;;;;;;;3.82;42.24;95894.94;5106813;28;20024;-79
2022/01/20 08:51:48;;;;;;;10.40;5.68;;;;;;;3.92;41.85;95903.00;5104980;28;20027;-78
2022/01/20 08:54:14;;;;;;;14.60;6.18;;;;;;;4.03;42.10;95901.31;5105648;28;20040;-79
2022/01/20 08:56:40;;;;;;;9.93;5.28;;;;;;;4.06;40.86;95890.44;5106469;28;20140;-78
2022/01/20 08:59:06;;;;;;;9.43;5.13;;;;;;;4.18;41.18;95883.28;5105815;28;20050;-78
2022/01/20 09:01:35;;;;;;;13.90;5.40;;;;;;;4.35;40.78;95889.88;5105129;28;20130;-77
2022/01/20 09:04:00;;;;;;;10.77;5.20;;;;;;;4.48;39.83;95886.19;5104578;28;20498;-82
2022/01/20 09:06:26;;;;;;;11.52;5.20;;;;;;;4.49;40.38;95886.06;5091995;28;20035;-85
2022/01/20 09:08:51;;;;;;;9.00;4.70;;;;;;;4.57;39.88;95882.75;5103543;28;20024;-83
2022/01/20 09:11:19;;;;;;;12.98;5.00;;;;;;;4.66;40.04;95883.81;5096303;28;20054;-83
2022/01/20 09:16:30;;;;;;;8.77;4.72;;;;;;;4.90;39.18;95888.84;5099768;28;20688;-84
2022/01/20 09:18:55;;;;;;;7.97;3.65;;;;;;;5.04;35.78;95887.69;5106713;28;20027;-83
2022/01/20 09:21:23;;;;;;;11.48;3.90;;;;;;;5.13;34.61;95877.22;5072152;28;20024;-85
2022/01/20 09:23:48;;;;;;;8.07;3.92;;;;;;;5.24;34.52;95874.47;5105541;28;20066;-83
2022/01/20 09:26:14;;;;;;;6.20;4.18;;;;;;;5.22;33.68;95871.13;5103906;28;20601;-84
2022/01/20 09:28:39;;;;;;;6.38;3.10;;;;;;;5.31;33.39;95873.00;5110489;28;20059;-83
2022/01/20 09:31:06;;;;;;;4.28;2.92;;;;;;;5.37;31.70;95858.28;5111085;28;20083;-84
2022/01/20 09:33:31;;;;;;;4.15;3.00;;;;;;;5.30;32.36;95857.16;5111283;28;20415;-84
2022/01/20 09:35:57;;;;;;;7.05;3.38;;;;;;;5.38;33.22;95840.53;5105732;28;20033;-84
2022/01/20 09:38:23;;;;;;;5.13;3.28;;;;;;;5.38;31.09;95840.53;5107963;28;20078;-84
2022/01/20 09:40:49;;;;;;;4.40;2.92;;;;;;;5.45;31.86;95841.66;5092285;28;20023;-86
2022/01/20 09:43:15;;;;;;;11.93;3.83;;;;;;;5.46;31.37;95837.19;5109998;28;20023;-85
2022/01/20 09:45:40;;;;;;;7.20;4.32;;;;;;;5.52;33.41;95832.19;5106605;28;20038;-85
2022/01/20 09:48:06;;;;;;;6.18;3.38;;;;;;;5.60;32.64;95834.16;5088265;28;20028;-85
2022/01/20 09:50:31;;;;;;;5.75;3.53;;;;;;;5.62;32.66;95832.22;5075193;28;20414;-85
2022/01/20 09:52:59;;;;;;;15.73;3.65;;;;;;;5.62;32.29;95829.53;5110150;28;20088;-84
2022/01/20 09:55:26;;;;;;;6.50;3.10;;;;;;;5.56;31.98;95822.94;5109170;28;20039;-83
2022/01/20 09:57:51;;;;;;;4.68;3.03;;;;;;;5.60;31.76;95804.03;5104348;28;20115;-84
2022/01/20 10:00:17;;;;;;;9.13;3.75;;;;;;;5.53;32.24;95799.25;5108961;28;20077;-85
2022/01/20 10:02:55;;;;;;;7.00;3.38;;;;;;;5.51;32.29;95806.56;5110078;28;20080;-84
2022/01/20 10:05:29;;;;;;;7.90;3.83;;;;;;;5.49;32.60;95792.53;5108311;28;20023;-85
2022/01/20 10:08:03;;;;;;;8.48;2.95;;;;;;;5.59;30.82;95789.91;5065855;28;20478;-86
2022/01/20 10:10:40;;;;;;;5.25;2.88;;;;;;;5.55;30.58;95789.31;5087974;28;20016;-85
2022/01/20 10:13:07;;;;;;;6.63;2.92;;;;;;;5.62;31.12;95784.31;5089538;28;20035;-83
2022/01/20 10:15:32;;;;;;;8.30;3.50;;;;;;;5.59;31.40;95781.06;5088528;28;20383;-87
2022/01/20 10:18:24;;;;;;;5.07;3.00;;;;;;;5.63;31.90;95777.16;5083076;28;20474;-84
2022/01/20 10:21:10;;;;;;;6.47;3.20;;;;;;;5.63;32.47;95777.16;5091900;28;20043;-84
2022/01/20 10:23:36;;;;;;;4.55;3.22;;;;;;;5.66;31.74;95756.44;5109246;28;20040;-87
2022/01/20 10:26:16;;;;;;;9.15;3.10;;;;;;;5.65;31.65;95759.22;5102168;28;20152;-85
2022/01/20 10:28:51;;;;;;;5.20;3.00;;;;;;;5.64;30.65;95761.03;5109305;28;20026;-87
2022/01/20 10:31:19;;;;;;;9.43;3.03;;;;;;;5.67;30.28;95762.59;5106607;28;20072;-88
2022/01/20 10:33:46;;;;;;;6.22;2.63;;;;;;;5.65;30.78;95765.41;5104325;28;20024;-85
2022/01/20 10:36:12;;;;;;;6.53;2.88;;;;;;;5.62;30.75;95754.19;5101153;28;20036;-86
2022/01/20 10:38:47;;;;;;;6.05;2.78;;;;;;;5.66;31.81;95744.94;5090889;28;20398;-85
2022/01/20 10:41:13;;;;;;;6.80;2.85;;;;;;;5.57;31.22;95746.63;5107865;28;20035;-87
2022/01/20 10:43:39;;;;;;;6.75;4.10;;;;;;;5.57;31.93;95741.28;5103168;28;20387;-87
2022/01/20 10:46:13;;;;;;;7.72;3.13;;;;;;;5.55;32.32;95736.13;5100900;28;20509;-86
2022/01/20 10:48:39;;;;;;;6.90;3.20;;;;;;;5.59;32.22;95733.16;5088588;28;20418;-83
2022/01/20 10:51:18;;;;;;;7.57;3.25;;;;;;;5.61;32.28;95731.22;5107858;28;20024;-87
2022/01/20 10:53:43;;;;;;;6.97;3.13;;;;;;;5.57;31.93;95728.00;5107511;28;20294;-86
2022/01/20 10:56:08;;;;;;;4.13;3.03;;;;;;;5.63;31.91;95714.13;5085153;28;20467;-87
2022/01/20 10:58:34;;;;;;;8.38;3.00;;;;;;;5.67;32.24;95704.88;5101441;28;20027;-82
2022/01/20 11:01:00;;;;;;;4.82;3.13;;;;;;;5.69;31.71;95708.25;5105199;28;20031;-85
2022/01/20 11:03:27;;;;;;;6.82;3.10;;;;;;;5.71;31.21;95692.13;5090389;28;20031;-84
2022/01/20 11:05:54;;;;;;;5.07;3.00;;;;;;;5.75;32.24;95696.22;5102610;28;20517;-86
2022/01/20 11:08:19;;;;;;;8.32;3.47;;;;;;;5.77;32.55;95688.91;5102997;28;20609;-85
2022/01/20 11:10:45;;;;;;;7.45;3.63;;;;;;;5.81;32.10;95686.81;5106963;28;20030;-83
2022/01/20 11:13:15;;;;;;;12.07;3.78;;;;;;;5.94;32.40;95679.38;5107508;28;20054;-84
2022/01/20 11:15:40;;;;;;;11.02;3.40;;;;;;;6.02;31.62;95683.16;5087861;28;20111;-82
2022/01/20 11:18:06;;;;;;;5.75;3.47;;;;;;;6.05;31.03;95681.06;5102592;28;20397;-83
2022/01/20 11:20:39;;;;;;;6.38;3.30;;;;;;;6.18;31.50;95683.44;5105923;28;20024;-84
2022/01/20 11:23:07;;;;;;;7.20;3.53;;;;;;;6.23;30.83;95685.66;5106745;28;20028;-82
2022/01/20 11:25:36;;;;;;;7.43;3.30;;;;;;;6.31;31.89;95668.97;5107942;28;20027;-84
2022/01/20 11:28:08;;;;;;;8.82;3.80;;;;;;;6.38;31.44;95669.22;5101032;28;20391;-83
2022/01/20 11:30:35;;;;;;;9.32;3.53;;;;;;;6.47;32.04;95672.84;5109116;28;20020;-84
2022/01/20 11:33:05;;;;;;;6.13;3.50;;;;;;;6.57;31.45;95664.81;5107170;28;20059;-83
2022/01/20 11:35:56;;;;;;;7.82;4.30;;;;;;;6.63;31.81;95667.72;5088793;28;20114;-82
2022/01/20 11:38:23;;;;;;;6.63;3.85;;;;;;;6.67;31.54;95662.97;5080170;28;20418;-83
2022/01/20 11:40:59;;;;;;;5.95;3.33;;;;;;;6.71;31.64;95663.47;5085746;28;20109;-83
2022/01/20 11:43:38;;;;;;;8.93;3.80;;;;;;;6.80;31.25;95670.63;5070714;28;20074;-85
2022/01/20 11:46:15;;;;;;;6.07;3.75;;;;;;;6.83;31.76;95680.13;5085898;28;20111;-84
2022/01/20 11:48:56;;;;;;;6.85;4.00;;;;;;;6.90;31.58;95681.25;5107253;28;20034;-85
2022/01/20 11:51:22;;;;;;;8.00;3.60;;;;;;;6.99;31.47;95674.16;5090990;28;20057;-85
2022/01/20 11:54:04;;;;;;;9.60;4.10;;;;;;;7.09;31.34;95663.44;5107274;28;20470;-84
2022/01/20 11:56:30;;;;;;;5.85;3.53;;;;;;;7.04;31.76;95664.72;5083118;28;20144;-84
2022/01/20 11:58:55;;;;;;;10.65;3.70;;;;;;;7.19;31.93;95663.41;5087616;28;20482;-85
2022/01/20 12:01:21;;;;;;;6.63;3.33;;;;;;;7.29;30.95;95656.16;5086640;28;20020;-81
2022/01/20 12:03:51;;;;;;;6.15;3.47;;;;;;;7.36;31.33;95651.06;5092693;28;20430;-82
2022/01/20 12:06:22;;;;;;;7.07;3.45;;;;;;;7.30;31.23;95645.31;5089939;28;20028;-82
2022/01/20 12:08:59;;;;;;;5.32;3.38;;;;;;;7.45;31.30;95652.81;5105050;28;20030;-83
2022/01/20 12:11:41;;;;;;;5.30;3.20;;;;;;;7.43;30.89;95652.13;5106409;28;20081;-82
2022/01/20 12:14:07;;;;;;;7.43;3.53;;;;;;;7.57;30.94;95647.25;5071524;28;20414;-82
2022/01/20 12:16:33;;;;;;;6.72;3.22;;;;;;;7.72;30.94;95642.22;5098794;28;20024;-82
2022/01/20 12:18:59;;;;;;;8.70;3.50;;;;;;;7.81;30.65;95637.75;5107296;28;20026;-84
2022/01/20 12:21:25;;;;;;;5.72;3.00;;;;;;;7.90;30.63;95643.00;5089347;28;20024;-83
2022/01/20 12:23:51;;;;;;;6.70;3.10;;;;;;;7.97;30.53;95632.56;5102612;28;20041;-81
2022/01/20 12:26:18;;;;;;;5.63;2.85;;;;;;;8.00;29.47;95642.09;5094003;28;20135;-82
2022/01/20 12:28:44;;;;;;;4.32;2.80;;;;;;;8.09;30.25;95649.19;5107504;28;20024;-82
2022/01/20 12:31:11;;;;;;;4.28;2.45;;;;;;;8.11;29.66;95643.69;5105791;28;20023;-81
2022/01/20 12:33:37;;;;;;;4.32;2.67;;;;;;;8.01;29.87;95635.75;5105076;28;20035;-81
2022/01/20 12:36:05;;;;;;;6.20;3.55;;;;;;;7.91;29.75;95641.19;5101711;28;21061;-84
2022/01/20 12:38:32;;;;;;;5.28;2.60;;;;;;;8.02;30.27;95638.28;5084376;28;20411;-83
2022/01/20 12:41:04;;;;;;;7.20;2.55;;;;;;;8.22;30.02;95638.06;5085334;28;20060;-81
2022/01/20 12:43:37;;;;;;;6.03;2.90;;;;;;;8.29;31.53;95639.13;5086626;28;20028;-82
2022/01/20 12:46:02;;;;;;;;;;;;;;;8.40;31.97;95642.50;5087020;28;20084;-82
2022/01/20 12:48:27;;;;;;;5.90;2.58;;;;;;;8.47;32.19;95630.19;5104269;28;19920;-81